sensor_id;sensor_type;location;lat;lon;timestamp;pressure;altitude;pressure_sealevel;temperature;humidity
41102;BME280;26845;50.190;19.178;2022-07-05T00:01:00;98730.06;;;22.35;58.80
41102;BME280;26845;50.190;19.178;2022-07-05T00:03:26;98744.03;;;22.37;59.55
41102;BME280;26845;50.190;19.178;2022-07-05T00:05:54;98737.95;;;22.35;59.58
41102;BME280;26845;50.190;19.178;2022-07-05T00:08:20;98742.38;;;22.33;59.93
41102;BME280;26845;50.190;19.178;2022-07-05T00:10:46;98745.39;;;22.27;59.87
41102;BME280;26845;50.190;19.178;2022-07-05T00:13:13;98741.93;;;22.20;60.09
41102;BME280;26845;50.190;19.178;2022-07-05T00:15:39;98732.97;;;22.14;59.75
41102;BME280;26845;50.190;19.178;2022-07-05T00:18:06;98728.87;;;22.08;60.04
41102;BME280;26845;50.190;19.178;2022-07-05T00:20:32;98724.61;;;22.05;60.45
41102;BME280;26845;50.190;19.178;2022-07-05T00:22:58;98718.75;;;22.00;60.52
41102;BME280;26845;50.190;19.178;2022-07-05T00:25:27;98715.69;;;21.99;60.40
41102;BME280;26845;50.190;19.178;2022-07-05T00:27:52;98711.67;;;22.00;60.17
41102;BME280;26845;50.190;19.178;2022-07-05T00:30:19;98711.46;;;22.03;60.40
41102;BME280;26845;50.190;19.178;2022-07-05T00:32:45;98711.69;;;22.04;60.56
41102;BME280;26845;50.190;19.178;2022-07-05T00:35:11;98720.16;;;22.00;60.63
41102;BME280;26845;50.190;19.178;2022-07-05T00:37:37;98725.82;;;22.00;60.96
41102;BME280;26845;50.190;19.178;2022-07-05T00:40:04;98720.34;;;21.97;61.39
41102;BME280;26845;50.190;19.178;2022-07-05T00:42:33;98717.27;;;21.89;61.34
41102;BME280;26845;50.190;19.178;2022-07-05T00:44:59;98720.45;;;21.81;61.76
41102;BME280;26845;50.190;19.178;2022-07-05T00:47:25;98722.60;;;21.74;61.96
41102;BME280;26845;50.190;19.178;2022-07-05T00:49:51;98721.37;;;21.71;62.22
41102;BME280;26845;50.190;19.178;2022-07-05T00:52:17;98721.58;;;21.69;61.72
41102;BME280;26845;50.190;19.178;2022-07-05T00:54:43;98715.50;;;21.67;61.60
41102;BME280;26845;50.190;19.178;2022-07-05T00:57:09;98712.06;;;21.67;61.76
41102;BME280;26845;50.190;19.178;2022-07-05T00:59:35;98711.45;;;21.68;62.33
41102;BME280;26845;50.190;19.178;2022-07-05T01:02:02;98716.29;;;21.64;62.48
41102;BME280;26845;50.190;19.178;2022-07-05T01:04:28;98715.41;;;21.56;62.50
41102;BME280;26845;50.190;19.178;2022-07-05T01:06:55;98713.97;;;21.49;62.79
41102;BME280;26845;50.190;19.178;2022-07-05T01:09:22;98709.23;;;21.40;63.07
41102;BME280;26845;50.190;19.178;2022-07-05T01:11:49;98704.48;;;21.30;63.36
41102;BME280;26845;50.190;19.178;2022-07-05T01:14:18;98704.81;;;21.22;63.53
41102;BME280;26845;50.190;19.178;2022-07-05T01:16:45;98699.12;;;21.15;63.93
41102;BME280;26845;50.190;19.178;2022-07-05T01:19:12;98707.34;;;21.10;63.83
41102;BME280;26845;50.190;19.178;2022-07-05T01:21:43;98701.67;;;21.06;64.15
41102;BME280;26845;50.190;19.178;2022-07-05T01:24:13;98702.65;;;21.04;63.90
41102;BME280;26845;50.190;19.178;2022-07-05T01:26:43;98702.39;;;21.00;64.20
41102;BME280;26845;50.190;19.178;2022-07-05T01:29:11;98703.98;;;20.97;64.64
41102;BME280;26845;50.190;19.178;2022-07-05T01:31:38;98698.08;;;20.89;65.00
41102;BME280;26845;50.190;19.178;2022-07-05T01:34:05;98699.77;;;20.80;64.61
41102;BME280;26845;50.190;19.178;2022-07-05T01:36:33;98700.55;;;20.77;65.17
41102;BME280;26845;50.190;19.178;2022-07-05T01:39:05;98701.16;;;20.77;65.26
41102;BME280;26845;50.190;19.178;2022-07-05T01:41:32;98697.16;;;20.78;65.22
41102;BME280;26845;50.190;19.178;2022-07-05T01:43:59;98699.77;;;20.80;65.53
41102;BME280;26845;50.190;19.178;2022-07-05T01:46:29;98690.92;;;20.82;65.78
41102;BME280;26845;50.190;19.178;2022-07-05T01:49:03;98697.38;;;20.82;66.28
41102;BME280;26845;50.190;19.178;2022-07-05T01:51:41;98699.41;;;20.82;66.52
41102;BME280;26845;50.190;19.178;2022-07-05T01:54:15;98695.52;;;20.77;67.00
41102;BME280;26845;50.190;19.178;2022-07-05T01:56:41;98690.31;;;20.62;67.07
41102;BME280;26845;50.190;19.178;2022-07-05T01:59:07;98693.72;;;20.58;67.37
41102;BME280;26845;50.190;19.178;2022-07-05T02:01:36;98682.83;;;20.60;67.46
41102;BME280;26845;50.190;19.178;2022-07-05T02:04:05;98682.66;;;20.62;67.58
41102;BME280;26845;50.190;19.178;2022-07-05T02:06:32;98676.03;;;20.64;68.03
41102;BME280;26845;50.190;19.178;2022-07-05T02:09:00;98671.16;;;20.61;68.13
41102;BME280;26845;50.190;19.178;2022-07-05T02:11:26;98670.36;;;20.61;68.30
41102;BME280;26845;50.190;19.178;2022-07-05T02:13:52;98668.94;;;20.61;68.49
41102;BME280;26845;50.190;19.178;2022-07-05T02:16:23;98671.16;;;20.61;68.63
41102;BME280;26845;50.190;19.178;2022-07-05T02:18:50;98671.59;;;20.63;68.66
41102;BME280;26845;50.190;19.178;2022-07-05T02:21:16;98673.23;;;20.68;68.52
41102;BME280;26845;50.190;19.178;2022-07-05T02:23:45;98678.88;;;20.68;68.55
41102;BME280;26845;50.190;19.178;2022-07-05T02:26:11;98676.30;;;20.69;68.79
41102;BME280;26845;50.190;19.178;2022-07-05T02:28:37;98680.73;;;20.70;68.94
41102;BME280;26845;50.190;19.178;2022-07-05T02:31:07;98678.11;;;20.71;69.12
41102;BME280;26845;50.190;19.178;2022-07-05T02:33:33;98669.23;;;20.69;69.24
41102;BME280;26845;50.190;19.178;2022-07-05T02:36:12;98675.25;;;20.68;69.30
41102;BME280;26845;50.190;19.178;2022-07-05T02:38:40;98677.04;;;20.66;69.48
41102;BME280;26845;50.190;19.178;2022-07-05T02:41:10;98680.44;;;20.62;69.65
41102;BME280;26845;50.190;19.178;2022-07-05T02:43:36;98691.88;;;20.56;69.65
41102;BME280;26845;50.190;19.178;2022-07-05T02:46:04;98691.75;;;20.49;69.54
41102;BME280;26845;50.190;19.178;2022-07-05T02:48:31;98691.75;;;20.49;69.68
41102;BME280;26845;50.190;19.178;2022-07-05T02:50:58;98689.76;;;20.49;70.08
41102;BME280;26845;50.190;19.178;2022-07-05T02:53:24;98695.81;;;20.51;70.34
41102;BME280;26845;50.190;19.178;2022-07-05T02:55:50;98696.21;;;20.50;70.46
41102;BME280;26845;50.190;19.178;2022-07-05T02:58:16;98698.00;;;20.48;70.53
41102;BME280;26845;50.190;19.178;2022-07-05T03:00:43;98693.93;;;20.45;70.68
41102;BME280;26845;50.190;19.178;2022-07-05T03:03:10;98691.28;;;20.43;70.82
41102;BME280;26845;50.190;19.178;2022-07-05T03:05:36;98695.14;;;20.44;70.78
41102;BME280;26845;50.190;19.178;2022-07-05T03:08:02;98698.94;;;20.42;70.92
41102;BME280;26845;50.190;19.178;2022-07-05T03:10:28;98696.12;;;20.42;70.98
41102;BME280;26845;50.190;19.178;2022-07-05T03:12:54;98699.55;;;20.42;71.13
41102;BME280;26845;50.190;19.178;2022-07-05T03:15:20;98700.18;;;20.45;71.29
41102;BME280;26845;50.190;19.178;2022-07-05T03:17:46;98701.22;;;20.47;71.39
41102;BME280;26845;50.190;19.178;2022-07-05T03:20:14;98708.05;;;20.45;71.31
41102;BME280;26845;50.190;19.178;2022-07-05T03:22:40;98710.23;;;20.42;71.46
41102;BME280;26845;50.190;19.178;2022-07-05T03:25:07;98718.05;;;20.39;71.62
41102;BME280;26845;50.190;19.178;2022-07-05T03:27:33;98716.21;;;20.37;71.76
41102;BME280;26845;50.190;19.178;2022-07-05T03:29:59;98716.21;;;20.37;71.83
41102;BME280;26845;50.190;19.178;2022-07-05T03:32:25;98716.00;;;20.36;71.87
41102;BME280;26845;50.190;19.178;2022-07-05T03:34:51;98721.02;;;20.33;72.04
41102;BME280;26845;50.190;19.178;2022-07-05T03:37:17;98723.67;;;20.06;71.89
41102;BME280;26845;50.190;19.178;2022-07-05T03:39:42;98727.73;;;19.78;72.35
41102;BME280;26845;50.190;19.178;2022-07-05T03:42:08;98730.06;;;19.63;72.66
41102;BME280;26845;50.190;19.178;2022-07-05T03:44:34;98728.01;;;19.60;73.05
41102;BME280;26845;50.190;19.178;2022-07-05T03:47:00;98730.18;;;19.57;73.36
41102;BME280;26845;50.190;19.178;2022-07-05T03:49:26;98728.15;;;19.44;73.52
41102;BME280;26845;50.190;19.178;2022-07-05T03:51:52;98724.77;;;19.44;73.72
41102;BME280;26845;50.190;19.178;2022-07-05T03:54:18;98724.05;;;19.51;73.83
41102;BME280;26845;50.190;19.178;2022-07-05T03:56:44;98740.09;;;19.60;73.96
41102;BME280;26845;50.190;19.178;2022-07-05T03:59:13;98739.33;;;19.63;73.97
41102;BME280;26845;50.190;19.178;2022-07-05T04:01:39;98740.09;;;19.70;74.06
41102;BME280;26845;50.190;19.178;2022-07-05T04:04:05;98745.06;;;19.80;74.18
41102;BME280;26845;50.190;19.178;2022-07-05T04:06:30;98747.00;;;19.89;74.27
41102;BME280;26845;50.190;19.178;2022-07-05T04:08:56;98745.34;;;19.98;74.39
41102;BME280;26845;50.190;19.178;2022-07-05T04:11:22;98745.42;;;20.05;74.47
41102;BME280;26845;50.190;19.178;2022-07-05T04:13:48;98745.09;;;20.10;74.52
41102;BME280;26845;50.190;19.178;2022-07-05T04:16:15;98752.40;;;20.15;74.59
41102;BME280;26845;50.190;19.178;2022-07-05T04:18:41;98758.72;;;20.18;74.55
41102;BME280;26845;50.190;19.178;2022-07-05T04:21:07;98752.84;;;20.17;74.53
41102;BME280;26845;50.190;19.178;2022-07-05T04:23:33;98757.07;;;20.17;74.58
41102;BME280;26845;50.190;19.178;2022-07-05T04:26:00;98756.63;;;20.15;74.61
41102;BME280;26845;50.190;19.178;2022-07-05T04:28:27;98758.23;;;20.12;74.67
41102;BME280;26845;50.190;19.178;2022-07-05T04:30:56;98761.59;;;20.08;74.79
41102;BME280;26845;50.190;19.178;2022-07-05T04:33:22;98760.13;;;20.05;74.78
41102;BME280;26845;50.190;19.178;2022-07-05T04:35:49;98756.27;;;20.03;74.73
41102;BME280;26845;50.190;19.178;2022-07-05T04:38:15;98755.74;;;19.94;75.08
41102;BME280;26845;50.190;19.178;2022-07-05T04:40:43;98756.02;;;19.85;75.38
41102;BME280;26845;50.190;19.178;2022-07-05T04:43:09;98762.91;;;19.88;75.68
41102;BME280;26845;50.190;19.178;2022-07-05T04:45:34;98772.06;;;19.94;75.89
41102;BME280;26845;50.190;19.178;2022-07-05T04:48:00;98772.78;;;20.01;76.02
41102;BME280;26845;50.190;19.178;2022-07-05T04:50:26;98784.97;;;20.09;76.12
41102;BME280;26845;50.190;19.178;2022-07-05T04:52:53;98777.31;;;20.09;76.01
41102;BME280;26845;50.190;19.178;2022-07-05T04:55:19;98774.56;;;20.13;76.11
41102;BME280;26845;50.190;19.178;2022-07-05T04:57:45;98772.22;;;20.18;76.16
41102;BME280;26845;50.190;19.178;2022-07-05T05:00:12;98772.30;;;20.26;76.34
41102;BME280;26845;50.190;19.178;2022-07-05T05:02:40;98779.47;;;20.33;76.46
41102;BME280;26845;50.190;19.178;2022-07-05T05:05:06;98780.15;;;20.39;76.52
41102;BME280;26845;50.190;19.178;2022-07-05T05:07:35;98778.84;;;20.47;76.37
41102;BME280;26845;50.190;19.178;2022-07-05T05:10:03;98778.78;;;20.56;76.39
41102;BME280;26845;50.190;19.178;2022-07-05T05:12:30;98776.06;;;20.63;76.39
41102;BME280;26845;50.190;19.178;2022-07-05T05:15:03;98775.66;;;20.65;76.40
41102;BME280;26845;50.190;19.178;2022-07-05T05:17:35;98775.66;;;20.65;76.40
41102;BME280;26845;50.190;19.178;2022-07-05T05:20:13;98770.98;;;20.63;76.43
41102;BME280;26845;50.190;19.178;2022-07-05T05:22:42;98774.66;;;20.63;76.53
41102;BME280;26845;50.190;19.178;2022-07-05T05:25:10;98778.92;;;20.67;76.69
41102;BME280;26845;50.190;19.178;2022-07-05T05:27:45;98773.11;;;20.70;76.71
41102;BME280;26845;50.190;19.178;2022-07-05T05:30:12;98780.80;;;20.73;76.93
41102;BME280;26845;50.190;19.178;2022-07-05T05:32:39;98773.78;;;20.76;76.74
41102;BME280;26845;50.190;19.178;2022-07-05T05:35:07;98773.81;;;20.80;76.83
41102;BME280;26845;50.190;19.178;2022-07-05T05:37:47;98773.47;;;20.85;76.96
41102;BME280;26845;50.190;19.178;2022-07-05T05:40:15;98776.73;;;20.87;76.86
41102;BME280;26845;50.190;19.178;2022-07-05T05:42:41;98784.26;;;20.93;77.06
41102;BME280;26845;50.190;19.178;2022-07-05T05:45:07;98787.92;;;20.97;77.03
41102;BME280;26845;50.190;19.178;2022-07-05T05:47:49;98782.30;;;21.00;77.07
41102;BME280;26845;50.190;19.178;2022-07-05T05:50:14;98793.43;;;21.03;76.92
41102;BME280;26845;50.190;19.178;2022-07-05T05:52:46;98789.02;;;21.05;76.99
41102;BME280;26845;50.190;19.178;2022-07-05T05:55:12;98784.17;;;21.06;77.01
41102;BME280;26845;50.190;19.178;2022-07-05T05:57:38;98793.26;;;21.05;76.89
41102;BME280;26845;50.190;19.178;2022-07-05T06:00:05;98791.81;;;21.02;76.97
41102;BME280;26845;50.190;19.178;2022-07-05T06:02:33;98792.80;;;21.00;77.02
41102;BME280;26845;50.190;19.178;2022-07-05T06:04:59;98806.52;;;20.98;77.18
41102;BME280;26845;50.190;19.178;2022-07-05T06:07:25;98813.31;;;20.93;77.20
41102;BME280;26845;50.190;19.178;2022-07-05T06:09:51;98820.11;;;20.88;77.17
41102;BME280;26845;50.190;19.178;2022-07-05T06:12:17;98820.11;;;20.88;77.40
41102;BME280;26845;50.190;19.178;2022-07-05T06:14:43;98820.88;;;20.85;77.52
41102;BME280;26845;50.190;19.178;2022-07-05T06:17:09;98830.39;;;20.87;77.73
41102;BME280;26845;50.190;19.178;2022-07-05T06:19:35;98839.64;;;20.84;77.56
41102;BME280;26845;50.190;19.178;2022-07-05T06:22:01;98840.62;;;20.82;77.69
41102;BME280;26845;50.190;19.178;2022-07-05T06:24:27;98840.31;;;20.74;77.46
41102;BME280;26845;50.190;19.178;2022-07-05T06:26:53;98846.89;;;20.68;77.59
41102;BME280;26845;50.190;19.178;2022-07-05T06:29:22;98839.96;;;20.62;77.64
41102;BME280;26845;50.190;19.178;2022-07-05T06:31:47;98847.02;;;20.62;77.73
41102;BME280;26845;50.190;19.178;2022-07-05T06:34:13;98842.13;;;20.45;77.52
41102;BME280;26845;50.190;19.178;2022-07-05T06:36:39;98842.13;;;20.45;77.52
41102;BME280;26845;50.190;19.178;2022-07-05T06:39:05;98848.00;;;20.47;77.72
41102;BME280;26845;50.190;19.178;2022-07-05T06:41:33;98852.16;;;20.43;77.70
41102;BME280;26845;50.190;19.178;2022-07-05T06:43:59;98843.01;;;20.36;77.72
41102;BME280;26845;50.190;19.178;2022-07-05T06:46:25;98841.11;;;20.31;77.88
41102;BME280;26845;50.190;19.178;2022-07-05T06:48:51;98838.69;;;20.29;78.08
41102;BME280;26845;50.190;19.178;2022-07-05T06:51:17;98835.59;;;20.25;78.14
41102;BME280;26845;50.190;19.178;2022-07-05T06:53:43;98835.59;;;20.25;78.33
41102;BME280;26845;50.190;19.178;2022-07-05T06:56:09;98830.91;;;20.22;78.45
41102;BME280;26845;50.190;19.178;2022-07-05T06:58:35;98830.87;;;20.19;78.32
41102;BME280;26845;50.190;19.178;2022-07-05T07:01:01;98828.37;;;20.14;78.34
41102;BME280;26845;50.190;19.178;2022-07-05T07:03:27;98819.05;;;20.10;78.77
41102;BME280;26845;50.190;19.178;2022-07-05T07:05:53;98823.60;;;20.05;78.93
41102;BME280;26845;50.190;19.178;2022-07-05T07:08:18;98821.66;;;19.95;79.08
41102;BME280;26845;50.190;19.178;2022-07-05T07:11:03;98821.97;;;19.90;79.25
41102;BME280;26845;50.190;19.178;2022-07-05T07:13:29;98817.09;;;19.87;79.42
41102;BME280;26845;50.190;19.178;2022-07-05T07:15:55;98814.27;;;19.87;79.93
41102;BME280;26845;50.190;19.178;2022-07-05T07:18:21;98816.60;;;19.82;79.86
41102;BME280;26845;50.190;19.178;2022-07-05T07:20:46;98815.95;;;19.79;80.01
41102;BME280;26845;50.190;19.178;2022-07-05T07:23:12;98809.66;;;19.75;80.24
41102;BME280;26845;50.190;19.178;2022-07-05T07:25:38;98809.22;;;19.73;79.95
41102;BME280;26845;50.190;19.178;2022-07-05T07:28:07;98818.27;;;19.63;80.29
41102;BME280;26845;50.190;19.178;2022-07-05T07:30:36;98815.79;;;19.58;80.96
41102;BME280;26845;50.190;19.178;2022-07-05T07:33:02;98827.48;;;19.60;80.82
41102;BME280;26845;50.190;19.178;2022-07-05T07:35:28;98830.69;;;19.59;80.68
41102;BME280;26845;50.190;19.178;2022-07-05T07:37:54;98829.70;;;19.61;80.79
41102;BME280;26845;50.190;19.178;2022-07-05T07:40:20;98831.71;;;19.60;80.81
41102;BME280;26845;50.190;19.178;2022-07-05T07:42:46;98824.81;;;19.58;80.67
41102;BME280;26845;50.190;19.178;2022-07-05T07:45:12;98830.03;;;19.55;80.74
41102;BME280;26845;50.190;19.178;2022-07-05T07:47:38;98832.86;;;19.55;81.00
41102;BME280;26845;50.190;19.178;2022-07-05T07:50:04;98841.31;;;19.55;80.92
41102;BME280;26845;50.190;19.178;2022-07-05T07:52:32;98849.17;;;19.56;81.16
41102;BME280;26845;50.190;19.178;2022-07-05T07:55:02;98853.16;;;19.55;81.16
41102;BME280;26845;50.190;19.178;2022-07-05T07:57:31;98853.66;;;19.61;81.40
41102;BME280;26845;50.190;19.178;2022-07-05T08:00:01;98860.48;;;19.69;81.44
41102;BME280;26845;50.190;19.178;2022-07-05T08:02:27;98860.26;;;19.78;81.49
41102;BME280;26845;50.190;19.178;2022-07-05T08:04:53;98856.13;;;19.85;81.55
41102;BME280;26845;50.190;19.178;2022-07-05T08:07:19;98853.81;;;19.91;81.42
41102;BME280;26845;50.190;19.178;2022-07-05T08:09:45;98850.44;;;19.95;81.36
41102;BME280;26845;50.190;19.178;2022-07-05T08:12:12;98844.59;;;19.94;81.23
41102;BME280;26845;50.190;19.178;2022-07-05T08:14:38;98843.88;;;20.00;81.53
41102;BME280;26845;50.190;19.178;2022-07-05T08:17:04;98853.17;;;20.01;81.51
41102;BME280;26845;50.190;19.178;2022-07-05T08:19:34;98860.28;;;20.05;81.50
41102;BME280;26845;50.190;19.178;2022-07-05T08:22:22;98853.22;;;20.05;81.53
41102;BME280;26845;50.190;19.178;2022-07-05T08:24:47;98857.66;;;20.06;81.47
41102;BME280;26845;50.190;19.178;2022-07-05T08:27:13;98861.48;;;20.04;81.35
41102;BME280;26845;50.190;19.178;2022-07-05T08:29:39;98853.65;;;19.93;81.30
41102;BME280;26845;50.190;19.178;2022-07-05T08:32:05;98851.54;;;19.87;81.40
41102;BME280;26845;50.190;19.178;2022-07-05T08:34:32;98853.11;;;19.84;81.37
41102;BME280;26845;50.190;19.178;2022-07-05T08:36:59;98863.44;;;19.76;81.61
41102;BME280;26845;50.190;19.178;2022-07-05T08:39:26;98856.94;;;19.72;81.64
41102;BME280;26845;50.190;19.178;2022-07-05T08:41:52;98853.08;;;19.71;81.81
41102;BME280;26845;50.190;19.178;2022-07-05T08:44:32;98850.80;;;19.67;81.81
41102;BME280;26845;50.190;19.178;2022-07-05T08:46:56;98843.52;;;19.66;82.13
41102;BME280;26845;50.190;19.178;2022-07-05T08:49:26;98846.09;;;19.65;82.29
41102;BME280;26845;50.190;19.178;2022-07-05T08:51:55;98855.84;;;19.67;82.29
41102;BME280;26845;50.190;19.178;2022-07-05T08:54:23;98854.79;;;19.66;82.32
41102;BME280;26845;50.190;19.178;2022-07-05T08:56:52;98862.89;;;19.67;82.33
41102;BME280;26845;50.190;19.178;2022-07-05T08:59:18;98865.00;;;19.74;82.52
41102;BME280;26845;50.190;19.178;2022-07-05T09:01:45;98863.44;;;19.76;82.27
41102;BME280;26845;50.190;19.178;2022-07-05T09:04:13;98868.17;;;19.82;82.47
41102;BME280;26845;50.190;19.178;2022-07-05T09:06:40;98871.48;;;19.88;82.41
41102;BME280;26845;50.190;19.178;2022-07-05T09:09:07;98871.78;;;19.92;82.56
41102;BME280;26845;50.190;19.178;2022-07-05T09:11:39;98868.35;;;19.93;82.52
41102;BME280;26845;50.190;19.178;2022-07-05T09:14:17;98867.84;;;20.00;82.77
41102;BME280;26845;50.190;19.178;2022-07-05T09:16:45;98862.55;;;19.95;82.58
41102;BME280;26845;50.190;19.178;2022-07-05T09:19:11;98859.50;;;19.94;82.79
41102;BME280;26845;50.190;19.178;2022-07-05T09:21:37;98858.42;;;20.03;82.86
41102;BME280;26845;50.190;19.178;2022-07-05T09:24:07;98854.43;;;20.04;82.54
41102;BME280;26845;50.190;19.178;2022-07-05T09:26:43;98850.45;;;20.08;82.75
41102;BME280;26845;50.190;19.178;2022-07-05T09:29:12;98853.81;;;20.17;83.05
41102;BME280;26845;50.190;19.178;2022-07-05T09:31:44;98850.67;;;20.22;83.04
41102;BME280;26845;50.190;19.178;2022-07-05T09:34:13;98847.48;;;20.24;83.11
41102;BME280;26845;50.190;19.178;2022-07-05T09:42:21;98859.89;;;20.19;82.80
41102;BME280;26845;50.190;19.178;2022-07-05T09:44:53;98855.70;;;20.23;82.98
41102;BME280;26845;50.190;19.178;2022-07-05T09:47:26;98863.48;;;20.30;82.88
41102;BME280;26845;50.190;19.178;2022-07-05T09:49:56;98859.25;;;20.30;82.82
41102;BME280;26845;50.190;19.178;2022-07-05T09:52:36;98856.80;;;20.28;83.12
41102;BME280;26845;50.190;19.178;2022-07-05T09:55:06;98853.00;;;20.30;83.23
41102;BME280;26845;50.190;19.178;2022-07-05T09:57:36;98850.99;;;20.31;83.27
41102;BME280;26845;50.190;19.178;2022-07-05T10:00:13;98859.73;;;20.35;83.19
41102;BME280;26845;50.190;19.178;2022-07-05T10:02:45;98867.84;;;20.40;83.09
41102;BME280;26845;50.190;19.178;2022-07-05T10:05:17;98865.75;;;20.47;83.19
41102;BME280;26845;50.190;19.178;2022-07-05T10:07:47;98867.72;;;20.56;83.38
41102;BME280;26845;50.190;19.178;2022-07-05T10:10:15;98869.61;;;20.62;83.04
41102;BME280;26845;50.190;19.178;2022-07-05T10:12:47;98859.52;;;20.61;82.94
41102;BME280;26845;50.190;19.178;2022-07-05T10:15:20;98860.58;;;20.66;83.16
41102;BME280;26845;50.190;19.178;2022-07-05T10:18:06;98858.79;;;20.68;82.96
41102;BME280;26845;50.190;19.178;2022-07-05T10:20:45;98859.84;;;20.69;82.96
41102;BME280;26845;50.190;19.178;2022-07-05T10:23:14;98872.63;;;20.76;83.14
41102;BME280;26845;50.190;19.178;2022-07-05T10:25:46;98874.47;;;20.78;82.95
41102;BME280;26845;50.190;19.178;2022-07-05T10:28:14;98875.72;;;20.81;82.64
41102;BME280;26845;50.190;19.178;2022-07-05T10:30:49;98875.75;;;20.84;82.60
41102;BME280;26845;50.190;19.178;2022-07-05T10:33:18;98874.78;;;20.86;82.63
41102;BME280;26845;50.190;19.178;2022-07-05T10:35:47;98875.96;;;20.85;82.54
41102;BME280;26845;50.190;19.178;2022-07-05T10:38:13;98878.75;;;20.82;82.35
41102;BME280;26845;50.190;19.178;2022-07-05T10:40:42;98878.91;;;20.79;82.69
41102;BME280;26845;50.190;19.178;2022-07-05T10:43:12;98886.85;;;20.83;82.71
41102;BME280;26845;50.190;19.178;2022-07-05T10:45:40;98887.33;;;20.89;82.72
41102;BME280;26845;50.190;19.178;2022-07-05T10:48:26;98886.80;;;20.97;82.69
41102;BME280;26845;50.190;19.178;2022-07-05T10:56:11;98889.39;;;21.09;82.52
41102;BME280;26845;50.190;19.178;2022-07-05T10:58:39;98892.38;;;21.06;82.07
41102;BME280;26845;50.190;19.178;2022-07-05T11:04:07;98887.73;;;20.91;81.81
41102;BME280;26845;50.190;19.178;2022-07-05T11:06:40;98887.66;;;20.84;82.18
41102;BME280;26845;50.190;19.178;2022-07-05T11:17:11;98892.67;;;20.68;81.74
41102;BME280;26845;50.190;19.178;2022-07-05T11:25:33;98880.61;;;20.71;81.79
41102;BME280;26845;50.190;19.178;2022-07-05T11:28:06;98882.63;;;20.70;81.66
41102;BME280;26845;50.190;19.178;2022-07-05T11:30:57;98882.67;;;20.74;81.80
41102;BME280;26845;50.190;19.178;2022-07-05T11:36:06;98873.87;;;20.79;81.65
41102;BME280;26845;50.190;19.178;2022-07-05T11:38:34;98869.80;;;20.76;81.88
41102;BME280;26845;50.190;19.178;2022-07-05T11:41:12;98875.23;;;20.75;82.12
41102;BME280;26845;50.190;19.178;2022-07-05T11:43:42;98873.39;;;20.73;82.17
41102;BME280;26845;50.190;19.178;2022-07-05T11:46:08;98870.89;;;20.68;82.21
41102;BME280;26845;50.190;19.178;2022-07-05T11:48:35;98873.41;;;20.60;81.89
41102;BME280;26845;50.190;19.178;2022-07-05T11:51:14;98862.72;;;20.59;82.16
41102;BME280;26845;50.190;19.178;2022-07-05T11:53:41;98863.64;;;20.54;82.35
41102;BME280;26845;50.190;19.178;2022-07-05T11:56:10;98865.53;;;20.59;82.53
41102;BME280;26845;50.190;19.178;2022-07-05T11:58:36;98856.26;;;20.59;82.30
41102;BME280;26845;50.190;19.178;2022-07-05T12:01:02;98856.46;;;20.60;82.44
41102;BME280;26845;50.190;19.178;2022-07-05T12:03:28;98852.80;;;20.56;82.50
41102;BME280;26845;50.190;19.178;2022-07-05T12:05:54;98854.97;;;20.53;82.16
41102;BME280;26845;50.190;19.178;2022-07-05T12:08:23;98848.55;;;20.56;82.61
41102;BME280;26845;50.190;19.178;2022-07-05T12:10:50;98850.45;;;20.61;82.64
41102;BME280;26845;50.190;19.178;2022-07-05T12:13:49;98849.64;;;20.61;82.33
41102;BME280;26845;50.190;19.178;2022-07-05T12:16:15;98839.36;;;20.62;82.48
41102;BME280;26845;50.190;19.178;2022-07-05T12:18:56;98840.00;;;20.65;82.75
41102;BME280;26845;50.190;19.178;2022-07-05T12:21:21;98834.95;;;20.65;82.36
41102;BME280;26845;50.190;19.178;2022-07-05T12:23:49;98831.70;;;20.63;82.34
41102;BME280;26845;50.190;19.178;2022-07-05T12:26:17;98827.89;;;20.65;82.64
41102;BME280;26845;50.190;19.178;2022-07-05T12:28:44;98827.98;;;20.55;82.28
41102;BME280;26845;50.190;19.178;2022-07-05T12:31:22;98830.91;;;20.36;82.41
41102;BME280;26845;50.190;19.178;2022-07-05T12:33:51;98831.15;;;20.24;82.83
41102;BME280;26845;50.190;19.178;2022-07-05T12:36:19;98833.53;;;20.21;83.08
41102;BME280;26845;50.190;19.178;2022-07-05T12:38:48;98836.23;;;20.28;83.31
41102;BME280;26845;50.190;19.178;2022-07-05T12:41:22;98833.05;;;20.29;83.06
41102;BME280;26845;50.190;19.178;2022-07-05T12:43:52;98828.86;;;20.19;83.02
41102;BME280;26845;50.190;19.178;2022-07-05T12:46:19;98827.12;;;20.11;83.21
41102;BME280;26845;50.190;19.178;2022-07-05T12:48:51;98825.66;;;20.08;83.44
41102;BME280;26845;50.190;19.178;2022-07-05T12:51:33;98832.44;;;20.03;83.30
41102;BME280;26845;50.190;19.178;2022-07-05T12:54:01;98827.55;;;20.00;83.55
41102;BME280;26845;50.190;19.178;2022-07-05T12:56:51;98825.98;;;20.03;83.57
41102;BME280;26845;50.190;19.178;2022-07-05T12:59:33;98829.45;;;20.06;83.65
41102;BME280;26845;50.190;19.178;2022-07-05T13:02:00;98828.16;;;19.99;83.64
41102;BME280;26845;50.190;19.178;2022-07-05T13:04:26;98829.36;;;19.98;83.81
41102;BME280;26845;50.190;19.178;2022-07-05T13:07:00;98826.86;;;19.93;83.71
41102;BME280;26845;50.190;19.178;2022-07-05T13:09:36;98830.95;;;19.86;83.69
41102;BME280;26845;50.190;19.178;2022-07-05T13:12:20;98834.22;;;19.88;84.17
41102;BME280;26845;50.190;19.178;2022-07-05T13:14:48;98836.44;;;19.89;83.92
41102;BME280;26845;50.190;19.178;2022-07-05T13:17:17;98840.75;;;19.92;83.80
41102;BME280;26845;50.190;19.178;2022-07-05T13:19:47;98838.78;;;19.96;83.84
41102;BME280;26845;50.190;19.178;2022-07-05T13:22:16;98831.94;;;19.97;83.76
41102;BME280;26845;50.190;19.178;2022-07-05T13:24:42;98832.44;;;20.03;83.97
41102;BME280;26845;50.190;19.178;2022-07-05T13:27:11;98821.70;;;19.99;83.79